Time;durP1;ratioP1;P1;durP2;ratioP2;P2;SDS_P1;SDS_P2;PMS_P1;PMS_P2;Temp;Humidity;BMP_temperature;BMP_pressure;BME280_temperature;BME280_humidity;BME280_pressure;Samples;Min_cycle;Max_cycle;Signal;HPM_P1;HPM_P2
2022/01/25 00:15:02;;;;;;;0.30;0.30;;;0.70;99.90;;;;;;4899767;29;20572;-85
2022/01/25 00:25:07;;;;;;;1.03;0.60;;;0.80;99.90;;;;;;4864857;29;20497;-84
2022/01/25 00:27:47;;;;;;;0.87;0.80;;;0.70;99.90;;;;;;4899173;29;20456;-84
2022/01/25 00:30:30;;;;;;;0.67;0.67;;;0.70;99.90;;;;;;4899205;29;20476;-85
2022/01/25 00:32:58;;;;;;;0.40;0.40;;;0.70;99.90;;;;;;4899151;29;20441;-84
2022/01/25 00:35:25;;;;;;;0.70;0.70;;;0.60;99.90;;;;;;4899039;29;20499;-84
2022/01/25 00:37:51;;;;;;;0.40;0.40;;;0.60;99.90;;;;;;4898817;29;20501;-84
2022/01/25 00:40:18;;;;;;;0.40;0.40;;;0.60;99.90;;;;;;4898779;29;20464;-84
2022/01/25 00:42:45;;;;;;;0.30;0.30;;;0.60;99.90;;;;;;4898715;29;20453;-84
2022/01/25 00:45:14;;;;;;;0.63;0.63;;;0.50;99.90;;;;;;4898956;29;20480;-84
2022/01/25 00:47:47;;;;;;;0.43;0.43;;;0.50;99.90;;;;;;4898890;29;20453;-84
2022/01/25 00:50:15;;;;;;;0.30;0.30;;;0.50;99.90;;;;;;4899177;29;20572;-84
2022/01/25 00:55:28;;;;;;;0.30;0.30;;;0.50;99.90;;;;;;4898571;29;20452;-84
2022/01/25 00:57:55;;;;;;;0.40;0.40;;;0.50;99.90;;;;;;4898713;29;20468;-84
2022/01/25 01:00:22;;;;;;;0.50;0.50;;;0.50;99.90;;;;;;4898728;29;20465;-84
2022/01/25 01:02:50;;;;;;;0.30;0.30;;;0.50;99.90;;;;;;4898777;29;20468;-84
2022/01/25 01:05:17;;;;;;;1.03;1.03;;;0.50;99.90;;;;;;4898527;29;20481;-84
2022/01/25 01:07:44;;;;;;;0.77;0.77;;;0.50;99.90;;;;;;4898644;29;20455;-84
2022/01/25 01:10:14;;;;;;;0.30;0.30;;;0.50;99.90;;;;;;4898504;29;20499;-84
2022/01/25 01:13:12;;;;;;;0.50;0.50;;;0.40;99.90;;;;;;4898536;29;20461;-84
2022/01/25 01:15:40;;;;;;;0.37;0.37;;;0.40;99.90;;;;;;4897958;29;20493;-84
2022/01/25 01:29:16;;;;;;;13.43;1.50;;;0.30;99.90;;;;;;4898265;29;20472;-85
2022/01/25 01:37:49;;;;;;;2.60;2.47;;;0.20;99.90;;;;;;4902112;29;20476;-85
2022/01/25 01:40:38;;;;;;;0.70;0.70;;;0.10;99.90;;;;;;4902422;29;20441;-85
2022/01/25 01:43:15;;;;;;;0.30;0.30;;;0.10;99.90;;;;;;4902337;29;20489;-85
2022/01/25 01:45:52;;;;;;;0.50;0.50;;;0.10;99.90;;;;;;4902367;29;20555;-85
2022/01/25 01:48:28;;;;;;;0.77;0.60;;;0.10;99.90;;;;;;4902927;29;20456;-85
2022/01/25 01:51:03;;;;;;;0.70;0.50;;;0.00;99.90;;;;;;4902072;29;20563;-85
2022/01/25 01:53:30;;;;;;;0.30;0.30;;;0.00;99.90;;;;;;4901904;29;20436;-84
2022/01/25 01:55:57;;;;;;;0.40;0.40;;;0.10;99.90;;;;;;4901642;29;20465;-84
2022/01/25 01:58:24;;;;;;;0.30;0.30;;;0.00;99.90;;;;;;4902174;29;20456;-84
2022/01/25 02:00:51;;;;;;;0.60;0.60;;;0.00;99.90;;;;;;4901804;29;20451;-84
2022/01/25 02:03:21;;;;;;;0.30;0.30;;;0.00;99.90;;;;;;4901558;29;20453;-84
2022/01/25 02:05:48;;;;;;;0.30;0.30;;;0.00;99.90;;;;;;4901628;29;20834;-85
2022/01/25 02:08:16;;;;;;;0.43;0.43;;;0.00;99.90;;;;;;4901864;29;20442;-84
2022/01/25 02:10:43;;;;;;;0.57;0.57;;;0.00;99.90;;;;;;4901598;29;20496;-83
2022/01/25 02:13:11;;;;;;;1.33;0.63;;;-0.10;99.90;;;;;;4901711;29;20452;-83
2022/01/25 02:15:40;;;;;;;0.30;0.20;;;-0.10;99.90;;;;;;4901517;29;20856;-83
2022/01/25 02:23:38;;;;;;;1.60;1.13;;;-0.10;99.90;;;;;;4901340;29;20421;-83
2022/01/25 02:26:08;;;;;;;0.30;0.30;;;-0.10;99.90;;;;;;4900987;29;20980;-83
2022/01/25 02:28:38;;;;;;;0.30;0.30;;;-0.10;99.90;;;;;;4901030;29;20437;-83
2022/01/25 02:31:07;;;;;;;0.40;0.40;;;-0.10;99.90;;;;;;4900983;29;20484;-82
2022/01/25 02:33:33;;;;;;;0.60;0.60;;;-0.10;99.90;;;;;;4900973;29;20449;-83
2022/01/25 02:36:06;;;;;;;0.30;0.30;;;-0.10;99.90;;;;;;4901588;29;20477;-83
2022/01/25 02:38:34;;;;;;;0.63;0.63;;;-0.20;99.90;;;;;;4900800;29;20480;-82
2022/01/25 02:41:02;;;;;;;0.40;0.40;;;-0.10;99.90;;;;;;4901068;29;20501;-83
2022/01/25 02:43:29;;;;;;;0.40;0.40;;;-0.10;99.90;;;;;;4901123;29;20457;-83
2022/01/25 02:46:24;;;;;;;2.43;1.23;;;-0.10;99.90;;;;;;4899823;29;20476;-83
2022/01/25 02:48:52;;;;;;;0.40;0.40;;;-0.10;99.90;;;;;;4901087;29;20442;-82
2022/01/25 02:51:21;;;;;;;0.40;0.40;;;-0.10;99.90;;;;;;4900911;29;20492;-83
2022/01/25 02:53:48;;;;;;;0.40;0.40;;;-0.10;99.90;;;;;;4900912;29;20430;-83
2022/01/25 02:56:15;;;;;;;0.30;0.30;;;-0.10;99.90;;;;;;4900809;29;20477;-82
2022/01/25 02:58:42;;;;;;;1.57;0.57;;;-0.10;99.90;;;;;;4900521;29;20949;-82
2022/01/25 03:01:09;;;;;;;0.30;0.30;;;-0.20;99.90;;;;;;4900524;29;20452;-83
2022/01/25 03:03:36;;;;;;;0.50;0.50;;;-0.10;99.90;;;;;;4900574;29;20481;-83
2022/01/25 03:06:03;;;;;;;0.50;0.50;;;-0.10;99.90;;;;;;4900610;29;20480;-84
2022/01/25 03:08:31;;;;;;;0.40;0.40;;;0.00;99.90;;;;;;4900508;29;20464;-85
2022/01/25 03:10:59;;;;;;;2.80;2.70;;;0.00;99.90;;;;;;4900608;29;20481;-85
2022/01/25 03:13:31;;;;;;;0.30;0.30;;;0.00;99.90;;;;;;4900695;29;20453;-85
2022/01/25 03:16:02;;;;;;;0.30;0.30;;;0.00;99.90;;;;;;4900551;29;20480;-85
2022/01/25 03:18:43;;;;;;;8.80;1.03;;;0.10;99.90;;;;;;4900599;29;20448;-85
2022/01/25 03:21:35;;;;;;;0.60;0.60;;;0.10;99.90;;;;;;4900596;29;20506;-84
2022/01/25 03:24:06;;;;;;;0.30;0.30;;;0.10;99.90;;;;;;4901008;29;20465;-84
2022/01/25 03:26:35;;;;;;;0.30;0.30;;;0.10;99.90;;;;;;4900463;29;20481;-85
2022/01/25 03:29:03;;;;;;;0.87;0.87;;;0.00;99.90;;;;;;4900331;29;20457;-82
2022/01/25 03:31:30;;;;;;;0.40;0.40;;;0.10;99.90;;;;;;4900172;29;20501;-82
2022/01/25 03:33:56;;;;;;;0.97;0.97;;;0.10;99.90;;;;;;4899981;29;20445;-82
2022/01/25 03:36:23;;;;;;;0.40;0.40;;;0.10;99.90;;;;;;4899833;29;20472;-82
2022/01/25 03:38:50;;;;;;;0.50;0.50;;;0.10;99.90;;;;;;4899933;29;20572;-83
2022/01/25 03:41:20;;;;;;;0.70;0.70;;;0.10;99.90;;;;;;4900485;29;20457;-85
2022/01/25 03:43:53;;;;;;;0.30;0.30;;;0.10;99.90;;;;;;4900308;29;20484;-85
2022/01/25 03:46:25;;;;;;;3.17;0.53;;;0.00;99.90;;;;;;4900306;29;20484;-85
2022/01/25 03:51:36;;;;;;;0.30;0.30;;;-0.10;99.90;;;;;;4900159;29;20468;-86
2022/01/25 03:54:04;;;;;;;0.70;0.70;;;-0.10;99.90;;;;;;4900600;29;20449;-86
2022/01/25 03:56:32;;;;;;;0.40;0.40;;;-0.10;99.90;;;;;;4899905;29;20465;-86
2022/01/25 03:59:00;;;;;;;1.73;1.73;;;-0.20;99.90;;;;;;4900104;29;20913;-86
2022/01/25 04:01:26;;;;;;;0.30;0.30;;;-0.20;99.90;;;;;;4900122;29;20448;-87
2022/01/25 04:03:59;;;;;;;0.30;0.30;;;-0.20;99.90;;;;;;4900265;29;20820;-87
2022/01/25 04:06:29;;;;;;;0.40;0.40;;;-0.30;99.90;;;;;;4899835;29;20485;-87
2022/01/25 04:08:56;;;;;;;1.07;0.97;;;-0.30;99.90;;;;;;4900106;29;20537;-87
2022/01/25 04:11:23;;;;;;;0.30;0.30;;;-0.30;99.90;;;;;;4899943;29;20995;-87
2022/01/25 04:13:52;;;;;;;0.50;0.50;;;-0.40;99.90;;;;;;4900193;29;20804;-87
2022/01/25 04:16:23;;;;;;;0.30;0.30;;;-0.40;99.90;;;;;;4899700;29;20473;-85
2022/01/25 04:19:01;;;;;;;1.97;1.87;;;-0.40;99.90;;;;;;4900188;29;20847;-85
2022/01/25 04:24:39;;;;;;;0.30;0.20;;;-0.40;99.90;;;;;;4899895;29;20437;-87
2022/01/25 04:24:56;;;;;;;0.50;0.50;;;-0.50;99.90;;;;;;4899177;29;20456;-85
2022/01/25 04:27:23;;;;;;;0.67;0.67;;;-0.50;99.90;;;;;;4899747;29;20466;-85
2022/01/25 04:29:52;;;;;;;0.30;0.30;;;-0.50;99.90;;;;;;4899589;29;20801;-83
2022/01/25 04:32:19;;;;;;;0.87;0.87;;;-0.50;99.90;;;;;;4899294;29;20443;-85
2022/01/25 04:35:07;;;;;;;0.30;0.30;;;-0.60;99.90;;;;;;4899702;29;20461;-85
2022/01/25 04:54:07;;;;;;;0.33;0.33;;;-0.50;99.90;;;;;;4886443;29;20946;-88
2022/01/25 04:56:39;;;;;;;0.30;0.30;;;-0.60;99.90;;;;;;4899081;29;20543;-88
2022/01/25 04:59:13;;;;;;;0.40;0.40;;;-0.50;99.90;;;;;;4899310;29;20520;-88
2022/01/25 05:01:42;;;;;;;0.30;0.27;;;-0.60;99.90;;;;;;4899135;29;20441;-88
2022/01/25 05:04:12;;;;;;;0.40;0.40;;;-0.60;99.90;;;;;;4899039;29;20453;-88
2022/01/25 05:06:42;;;;;;;0.30;0.20;;;-0.60;99.90;;;;;;4898879;29;20465;-84
2022/01/25 05:09:11;;;;;;;0.67;0.67;;;-0.50;99.90;;;;;;4898145;29;20477;-83
2022/01/25 05:11:42;;;;;;;0.30;0.30;;;-0.50;99.90;;;;;;4898210;29;20484;-84
2022/01/25 05:14:20;;;;;;;0.60;0.50;;;-0.50;99.90;;;;;;4898768;29;20469;-84
2022/01/25 05:16:51;;;;;;;0.30;0.20;;;-0.40;99.90;;;;;;4898457;29;20484;-84
2022/01/25 05:22:03;;;;;;;0.30;0.30;;;-0.50;99.90;;;;;;4898666;29;20494;-87
2022/01/25 05:22:19;;;;;;;0.30;0.30;;;-0.50;99.90;;;;;;4898606;29;20460;-87
2022/01/25 05:24:48;;;;;;;0.30;0.30;;;-0.50;99.90;;;;;;4898811;29;20432;-87
2022/01/25 05:27:17;;;;;;;2.07;1.97;;;-0.60;99.90;;;;;;4898492;29;20441;-87
2022/01/25 05:29:44;;;;;;;0.30;0.30;;;-0.60;99.90;;;;;;4898476;29;20846;-87
2022/01/25 05:32:12;;;;;;;0.93;0.50;;;-0.60;99.90;;;;;;4898135;29;20475;-82
2022/01/25 05:34:39;;;;;;;0.30;0.30;;;-0.70;99.90;;;;;;4897954;29;20441;-80
2022/01/25 05:37:07;;;;;;;0.37;0.37;;;-0.80;99.90;;;;;;4897851;29;20489;-83
2022/01/25 05:39:36;;;;;;;1.17;1.17;;;-0.80;99.90;;;;;;4898306;29;20807;-84
2022/01/25 05:42:20;;;;;;;0.40;0.40;;;-0.80;99.90;;;;;;4898543;29;20427;-84
2022/01/25 05:44:59;;;;;;;0.33;0.33;;;-0.80;99.90;;;;;;4898383;29;20493;-86
2022/01/25 05:47:30;;;;;;;0.77;0.47;;;-0.80;99.90;;;;;;4898284;29;20437;-82
2022/01/25 05:49:58;;;;;;;0.30;0.30;;;-0.80;99.90;;;;;;4897822;29;20917;-83
2022/01/25 05:52:25;;;;;;;0.40;0.40;;;-0.80;99.90;;;;;;4898221;29;20468;-83
2022/01/25 05:54:53;;;;;;;0.50;0.50;;;-0.80;99.90;;;;;;4898042;29;20560;-83
2022/01/25 05:57:20;;;;;;;0.47;0.47;;;-0.80;99.90;;;;;;4898076;29;20464;-83
2022/01/25 05:59:46;;;;;;;0.30;0.30;;;-0.90;99.90;;;;;;4898103;29;20452;-83
2022/01/25 06:02:17;;;;;;;0.30;0.30;;;-0.90;99.90;;;;;;4898078;29;20488;-83
2022/01/25 06:04:46;;;;;;;0.30;0.30;;;-0.90;99.90;;;;;;4898046;29;20456;-83
2022/01/25 06:07:13;;;;;;;1.10;0.60;;;-0.90;99.90;;;;;;4898482;29;20461;-86
2022/01/25 06:09:41;;;;;;;0.30;0.30;;;-0.90;99.90;;;;;;4899361;29;20441;-85
2022/01/25 06:12:09;;;;;;;0.43;0.43;;;-1.00;99.90;;;;;;4898236;29;20891;-86
2022/01/25 06:14:36;;;;;;;0.40;0.40;;;-1.00;99.90;;;;;;4898162;29;20435;-84
2022/01/25 06:17:03;;;;;;;0.30;0.30;;;-1.00;99.90;;;;;;4897798;29;20944;-84
2022/01/25 06:19:30;;;;;;;0.30;0.30;;;-1.00;99.90;;;;;;4897744;29;20445;-83
2022/01/25 06:21:58;;;;;;;0.60;0.60;;;-0.90;99.90;;;;;;4900338;29;20441;-82
2022/01/25 06:24:25;;;;;;;0.30;0.30;;;-1.00;99.90;;;;;;4901294;29;20456;-85
2022/01/25 06:26:52;;;;;;;0.83;0.80;;;-1.00;99.90;;;;;;4901910;29;20482;-86
2022/01/25 06:29:19;;;;;;;0.77;0.77;;;-1.00;99.90;;;;;;4902171;29;20456;-83
2022/01/25 06:31:47;;;;;;;0.80;0.80;;;-1.10;99.90;;;;;;4901017;29;20540;-82
2022/01/25 06:34:14;;;;;;;0.30;0.30;;;-1.10;99.90;;;;;;4901271;29;20893;-83
2022/01/25 06:36:40;;;;;;;0.30;0.30;;;-1.10;99.90;;;;;;4900927;29;20439;-85
2022/01/25 06:39:09;;;;;;;0.30;0.30;;;-1.10;99.90;;;;;;4901509;29;20393;-85
2022/01/25 06:41:37;;;;;;;0.30;0.30;;;-1.10;99.90;;;;;;4901300;29;20448;-85
2022/01/25 06:44:04;;;;;;;0.90;0.70;;;-1.10;99.90;;;;;;4901204;29;20465;-86
2022/01/25 06:46:31;;;;;;;0.67;0.67;;;-1.10;99.90;;;;;;4901570;29;20446;-86
2022/01/25 06:48:58;;;;;;;0.30;0.30;;;-1.20;99.90;;;;;;4901415;29;20445;-86
2022/01/25 06:51:25;;;;;;;0.30;0.30;;;-1.20;99.90;;;;;;4901517;29;21008;-86
2022/01/25 06:53:51;;;;;;;0.30;0.30;;;-1.20;99.90;;;;;;4903490;29;20404;-85
2022/01/25 06:56:19;;;;;;;0.30;0.30;;;-1.20;99.90;;;;;;4910077;29;20484;-87
2022/01/25 06:58:46;;;;;;;0.40;0.40;;;-1.20;99.90;;;;;;4901325;29;20428;-87
2022/01/25 07:01:13;;;;;;;0.50;0.50;;;-1.20;99.90;;;;;;4900597;29;20439;-83
2022/01/25 07:03:40;;;;;;;0.30;0.30;;;-1.20;99.90;;;;;;4901082;29;20899;-83
2022/01/25 07:06:07;;;;;;;0.30;0.30;;;-1.10;99.90;;;;;;4900608;29;20472;-83
2022/01/25 07:08:33;;;;;;;1.27;1.13;;;-1.20;99.90;;;;;;4901144;29;20437;-83
2022/01/25 07:11:00;;;;;;;0.70;0.70;;;-1.20;99.90;;;;;;4900343;29;20489;-82
2022/01/25 07:13:28;;;;;;;0.77;0.77;;;-1.20;99.90;;;;;;4900826;29;20939;-87
2022/01/25 07:15:55;;;;;;;0.40;0.40;;;-1.20;99.90;;;;;;4903156;29;20479;-87
2022/01/25 07:18:22;;;;;;;0.30;0.30;;;-1.20;99.90;;;;;;4900853;29;20445;-87
2022/01/25 07:20:48;;;;;;;0.70;0.70;;;-1.20;99.90;;;;;;4900886;29;20453;-83
2022/01/25 07:23:15;;;;;;;2.33;2.23;;;-1.20;99.90;;;;;;4900405;29;20437;-83
2022/01/25 07:25:42;;;;;;;0.40;0.30;;;-1.20;99.90;;;;;;4900048;29;20461;-84
2022/01/25 07:28:09;;;;;;;1.40;1.40;;;-1.10;99.90;;;;;;4900385;29;20427;-83
2022/01/25 07:30:37;;;;;;;1.30;1.20;;;-1.10;99.90;;;;;;4899972;29;20927;-83
2022/01/25 07:33:05;;;;;;;0.30;0.30;;;-1.00;99.90;;;;;;4899477;29;20441;-83
2022/01/25 07:35:33;;;;;;;0.30;0.30;;;-1.10;99.90;;;;;;4900190;29;20488;-83
2022/01/25 07:37:59;;;;;;;0.30;0.30;;;-1.00;99.90;;;;;;4900382;29;20492;-86
2022/01/25 07:40:26;;;;;;;0.30;0.30;;;-1.00;99.90;;;;;;4900268;29;20952;-87
2022/01/25 07:42:53;;;;;;;0.30;0.30;;;-1.00;99.90;;;;;;4900475;29;20451;-87
2022/01/25 07:45:21;;;;;;;0.67;0.67;;;-1.00;99.90;;;;;;4899722;29;20484;-83
2022/01/25 07:47:49;;;;;;;0.40;0.40;;;-0.90;99.90;;;;;;4900204;29;20457;-85
2022/01/25 07:50:16;;;;;;;0.77;0.77;;;-0.80;99.90;;;;;;4900330;29;20465;-87
2022/01/25 07:52:43;;;;;;;0.30;0.30;;;-0.80;99.90;;;;;;4900491;29;20572;-87
2022/01/25 07:55:11;;;;;;;0.33;0.33;;;-0.70;99.90;;;;;;4900595;29;20455;-87
2022/01/25 07:57:39;;;;;;;0.53;0.43;;;-0.70;99.90;;;;;;4899828;29;20964;-87
2022/01/25 08:00:07;;;;;;;0.30;0.30;;;-0.70;99.90;;;;;;4913879;29;20476;-86
2022/01/25 08:02:34;;;;;;;0.30;0.30;;;-0.50;99.90;;;;;;4909509;29;20428;-85
2022/01/25 08:05:02;;;;;;;0.40;0.40;;;-0.50;99.90;;;;;;4899758;29;20481;-83
2022/01/25 08:07:29;;;;;;;0.77;0.77;;;-0.40;99.90;;;;;;4899690;29;20463;-87
2022/01/25 08:09:56;;;;;;;0.30;0.30;;;-0.40;99.90;;;;;;4899364;29;20445;-84
2022/01/25 08:12:22;;;;;;;0.30;0.30;;;-0.20;99.90;;;;;;4899174;29;20481;-84
2022/01/25 08:14:49;;;;;;;0.30;0.30;;;-0.20;99.90;;;;;;4899152;29;20980;-84
2022/01/25 08:17:17;;;;;;;0.50;0.50;;;-0.10;99.90;;;;;;4899780;29;20460;-84
2022/01/25 08:19:44;;;;;;;0.57;0.57;;;-0.10;99.90;;;;;;4899389;29;20449;-84
2022/01/25 08:22:12;;;;;;;0.30;0.20;;;0.00;99.90;;;;;;4899550;29;20532;-84
2022/01/25 08:24:39;;;;;;;0.43;0.40;;;0.00;99.90;;;;;;4899190;29;20477;-84
2022/01/25 08:27:06;;;;;;;0.60;0.60;;;0.00;99.90;;;;;;4899236;29;20463;-84
2022/01/25 08:29:33;;;;;;;0.57;0.57;;;0.00;99.90;;;;;;4899217;29;20459;-84
2022/01/25 08:32:00;;;;;;;0.40;0.40;;;0.00;99.90;;;;;;4898875;29;20480;-83
2022/01/25 08:34:26;;;;;;;0.30;0.30;;;0.00;99.90;;;;;;4899112;29;20537;-83
2022/01/25 08:36:53;;;;;;;0.40;0.40;;;0.00;99.90;;;;;;4899069;29;20485;-83
2022/01/25 08:39:22;;;;;;;0.70;0.70;;;0.10;99.90;;;;;;4899178;29;20807;-83
2022/01/25 08:41:49;;;;;;;0.93;0.93;;;0.10;99.90;;;;;;4898917;29;20967;-83
2022/01/25 08:44:15;;;;;;;0.43;0.43;;;0.10;99.90;;;;;;4898054;29;20418;-82
2022/01/25 08:46:42;;;;;;;0.30;0.30;;;0.20;99.90;;;;;;4899460;29;20480;-83
2022/01/25 08:49:12;;;;;;;1.00;1.00;;;0.30;99.90;;;;;;4899441;29;20441;-83
2022/01/25 08:51:39;;;;;;;0.40;0.40;;;0.40;99.90;;;;;;4898751;29;20481;-83
2022/01/25 08:54:06;;;;;;;0.30;0.30;;;0.70;99.90;;;;;;4899156;29;20484;-83
2022/01/25 08:56:34;;;;;;;0.90;0.90;;;1.00;99.90;;;;;;4898983;29;20532;-83
2022/01/25 08:59:01;;;;;;;0.30;0.30;;;1.50;99.90;;;;;;4898529;29;20418;-83
2022/01/25 09:01:28;;;;;;;0.30;0.30;;;2.30;99.90;;;;;;4898764;29;20452;-82
2022/01/25 09:03:56;;;;;;;0.90;0.70;;;3.30;99.90;;;;;;4898384;29;20438;-83
2022/01/25 09:06:22;;;;;;;0.30;0.30;;;4.30;99.90;;;;;;4898797;29;20559;-83
2022/01/25 09:08:51;;;;;;;0.63;0.63;;;5.40;99.90;;;;;;4898554;29;20461;-83
2022/01/25 09:11:18;;;;;;;2.20;0.60;;;6.70;99.90;;;;;;4898536;29;20453;-82
2022/01/25 09:13:46;;;;;;;0.77;0.77;;;7.80;99.90;;;;;;4898397;29;20460;-83
2022/01/25 09:16:13;;;;;;;0.40;0.37;;;8.50;99.90;;;;;;4898501;29;20488;-83
2022/01/25 09:18:39;;;;;;;1.10;1.10;;;9.00;99.90;;;;;;4898190;29;20987;-82
2022/01/25 09:21:06;;;;;;;0.30;0.30;;;9.60;99.90;;;;;;4898102;29;20960;-83
2022/01/25 09:23:33;;;;;;;0.30;0.30;;;10.50;99.90;;;;;;4898028;29;20453;-83
2022/01/25 09:26:01;;;;;;;1.63;0.50;;;11.50;97.30;;;;;;4898145;29;20481;-83
2022/01/25 09:28:28;;;;;;;2.20;0.90;;;12.40;93.50;;;;;;4897955;29;20977;-83
2022/01/25 09:30:56;;;;;;;1.50;1.10;;;13.10;88.10;;;;;;4898375;29;20457;-83
2022/01/25 09:33:24;;;;;;;2.30;0.80;;;13.70;84.00;;;;;;4898223;29;20496;-83
2022/01/25 09:35:51;;;;;;;3.07;2.37;;;14.20;78.60;;;;;;4898038;29;20461;-83
2022/01/25 09:38:19;;;;;;;3.20;0.97;;;14.60;75.10;;;;;;4897761;29;20500;-83
2022/01/25 09:40:47;;;;;;;1.30;1.17;;;14.80;73.40;;;;;;4898340;29;20457;-83
2022/01/25 09:43:14;;;;;;;1.23;0.87;;;14.70;70.30;;;;;;4898207;29;20460;-83
2022/01/25 09:45:41;;;;;;;5.43;1.70;;;14.30;69.10;;;;;;4897873;29;20477;-84
2022/01/25 09:48:10;;;;;;;2.87;1.27;;;13.90;70.90;;;;;;4898076;29;20469;-83
2022/01/25 09:50:38;;;;;;;1.37;1.30;;;13.70;70.40;;;;;;4898157;29;20461;-82
2022/01/25 09:53:05;;;;;;;3.23;1.17;;;13.00;71.30;;;;;;4898044;29;20488;-84
2022/01/25 09:55:34;;;;;;;1.70;1.20;;;12.60;72.40;;;;;;4898766;29;20472;-84
2022/01/25 09:58:02;;;;;;;5.20;1.23;;;12.10;76.40;;;;;;4901999;29;20437;-84
2022/01/25 10:00:30;;;;;;;1.60;1.30;;;11.90;76.20;;;;;;4901607;29;20460;-85
2022/01/25 10:03:05;;;;;;;1.07;0.80;;;11.70;74.80;;;;;;4901595;29;20933;-85
2022/01/25 10:05:37;;;;;;;1.53;1.43;;;11.60;77.80;;;;;;4901868;29;20854;-84
2022/01/25 10:08:06;;;;;;;2.30;1.27;;;12.10;77.70;;;;;;4901826;29;20448;-84
2022/01/25 10:10:34;;;;;;;4.60;0.97;;;12.90;73.40;;;;;;4902050;29;20488;-85
2022/01/25 10:13:09;;;;;;;0.87;0.87;;;14.10;72.70;;;;;;4901376;29;20480;-85
2022/01/25 10:15:36;;;;;;;1.70;0.87;;;15.40;68.80;;;;;;4901606;29;20484;-85
2022/01/25 10:18:05;;;;;;;1.70;0.97;;;16.10;64.80;;;;;;4901849;29;20467;-85
2022/01/25 10:20:35;;;;;;;1.13;1.03;;;16.30;62.20;;;;;;4901708;29;20971;-85
2022/01/25 10:23:05;;;;;;;1.47;0.90;;;15.90;61.20;;;;;;4901530;29;20451;-84
2022/01/25 10:25:38;;;;;;;1.97;0.77;;;15.20;63.30;;;;;;4901200;29;20464;-85
2022/01/25 10:28:11;;;;;;;3.70;1.23;;;13.90;64.40;;;;;;4901784;29;20476;-84
2022/01/25 10:30:48;;;;;;;0.90;0.63;;;12.70;67.40;;;;;;4902132;29;20465;-85
2022/01/25 10:33:26;;;;;;;0.70;0.57;;;11.50;69.90;;;;;;4901073;29;20465;-85
2022/01/25 10:35:56;;;;;;;1.00;0.50;;;10.60;72.50;;;;;;4901381;29;20532;-84
2022/01/25 10:38:25;;;;;;;2.30;2.10;;;10.00;74.30;;;;;;4900868;29;20853;-84
2022/01/25 10:41:04;;;;;;;1.23;0.70;;;9.40;78.60;;;;;;4900874;29;20437;-85
2022/01/25 10:43:33;;;;;;;0.40;0.40;;;9.30;81.80;;;;;;4901569;29;20445;-85
2022/01/25 10:46:17;;;;;;;0.60;0.30;;;9.10;81.40;;;;;;4901111;29;20484;-84
2022/01/25 10:48:50;;;;;;;1.33;0.60;;;8.90;82.40;;;;;;4901265;29;20460;-84
2022/01/25 10:51:22;;;;;;;2.90;0.90;;;8.80;84.50;;;;;;4901636;29;20464;-84
2022/01/25 10:54:14;;;;;;;0.67;0.40;;;8.60;84.50;;;;;;4901120;29;20477;-84
2022/01/25 10:56:45;;;;;;;0.40;0.30;;;8.30;84.70;;;;;;4886965;29;20485;-85
2022/01/25 10:59:15;;;;;;;0.40;0.40;;;8.00;87.00;;;;;;4900610;29;20778;-79
2022/01/25 11:01:47;;;;;;;0.50;0.50;;;7.70;87.60;;;;;;4901117;29;20433;-80
2022/01/25 11:04:15;;;;;;;0.40;0.40;;;7.40;90.20;;;;;;4900691;29;20441;-79
2022/01/25 11:06:44;;;;;;;0.30;0.30;;;7.30;91.40;;;;;;4900424;29;20830;-79
2022/01/25 11:09:15;;;;;;;1.27;0.80;;;7.40;91.50;;;;;;4900000;29;20841;-82
2022/01/25 11:11:46;;;;;;;0.60;0.60;;;7.20;91.70;;;;;;4900573;29;20445;-83
2022/01/25 11:17:00;;;;;;;0.63;0.60;;;6.80;93.20;;;;;;4900677;29;20416;-82
2022/01/25 11:19:27;;;;;;;0.50;0.50;;;6.60;94.10;;;;;;4900552;29;20437;-84
2022/01/25 11:21:58;;;;;;;5.23;1.17;;;6.40;94.60;;;;;;4900758;29;20441;-84
2022/01/25 11:24:28;;;;;;;0.53;0.40;;;6.30;95.10;;;;;;4900543;29;20452;-84
2022/01/25 11:26:55;;;;;;;0.67;0.67;;;6.20;96.10;;;;;;4900239;29;20843;-84
2022/01/25 11:29:22;;;;;;;2.70;2.60;;;6.20;96.80;;;;;;4901138;29;20805;-84
2022/01/25 11:31:54;;;;;;;0.30;0.30;;;6.20;97.40;;;;;;4900245;29;20445;-84
2022/01/25 11:34:27;;;;;;;0.70;0.70;;;6.20;97.50;;;;;;4900257;29;20445;-84
2022/01/25 11:36:58;;;;;;;3.60;0.63;;;6.20;98.30;;;;;;4900025;29;20557;-84
2022/01/25 11:39:27;;;;;;;0.30;0.30;;;6.10;98.70;;;;;;4899910;29;20811;-84
2022/01/25 11:42:03;;;;;;;0.30;0.30;;;6.10;99.00;;;;;;4900153;29;20460;-84
2022/01/25 11:44:31;;;;;;;0.40;0.40;;;6.20;99.20;;;;;;4899711;29;20451;-84
2022/01/25 11:47:06;;;;;;;0.37;0.27;;;6.20;99.90;;;;;;4900667;29;20465;-83
2022/01/25 11:49:34;;;;;;;0.40;0.40;;;6.20;99.50;;;;;;4899924;29;20444;-84
2022/01/25 11:52:11;;;;;;;0.60;0.60;;;6.20;98.90;;;;;;4899873;29;20426;-84
2022/01/25 11:54:38;;;;;;;0.70;0.70;;;6.20;99.80;;;;;;4899776;29;20432;-84
2022/01/25 11:57:13;;;;;;;1.70;0.60;;;6.20;99.50;;;;;;4900034;29;20441;-84
2022/01/25 11:59:41;;;;;;;0.67;0.47;;;6.10;99.90;;;;;;4899807;29;20451;-84
2022/01/25 12:02:08;;;;;;;0.40;0.40;;;6.10;99.90;;;;;;4899598;29;20420;-83
2022/01/25 12:04:35;;;;;;;0.60;0.60;;;6.20;99.90;;;;;;4899623;29;20414;-84
2022/01/25 12:07:03;;;;;;;0.30;0.30;;;6.20;99.90;;;;;;4899382;29;20917;-84
2022/01/25 12:09:46;;;;;;;0.60;0.57;;;6.10;99.90;;;;;;4899503;29;20528;-84
2022/01/25 12:12:15;;;;;;;0.50;0.43;;;6.10;99.90;;;;;;4899185;29;20967;-84
2022/01/25 12:14:44;;;;;;;0.40;0.40;;;6.00;99.90;;;;;;4899398;29;20448;-84
2022/01/25 12:17:13;;;;;;;0.40;0.30;;;6.00;99.90;;;;;;4899716;29;20441;-84
2022/01/25 12:19:44;;;;;;;3.13;0.80;;;5.90;99.90;;;;;;4899028;29;20972;-84
2022/01/25 12:22:15;;;;;;;0.30;0.30;;;5.80;99.90;;;;;;4899458;29;20442;-84
2022/01/25 12:25:05;;;;;;;0.70;0.43;;;5.80;99.90;;;;;;4899305;29;20445;-84
2022/01/25 12:27:45;;;;;;;0.30;0.30;;;5.80;99.90;;;;;;4899321;29;20453;-84
2022/01/25 12:30:13;;;;;;;0.30;0.20;;;5.80;99.90;;;;;;4899259;29;20441;-84
2022/01/25 12:32:55;;;;;;;0.50;0.50;;;5.80;99.90;;;;;;4899123;29;20488;-84
2022/01/25 12:35:43;;;;;;;0.43;0.43;;;5.70;99.90;;;;;;4899133;29;20835;-84
2022/01/25 12:38:19;;;;;;;0.50;0.50;;;5.70;99.90;;;;;;4899071;29;20515;-84
2022/01/25 12:41:00;;;;;;;0.30;0.30;;;5.70;99.90;;;;;;4899162;29;20441;-84
2022/01/25 12:43:29;;;;;;;0.40;0.40;;;5.70;99.90;;;;;;4899057;29;20442;-84
2022/01/25 12:45:59;;;;;;;1.47;0.40;;;5.70;99.90;;;;;;4898774;29;20972;-84
2022/01/25 12:48:29;;;;;;;0.50;0.50;;;5.60;99.90;;;;;;4899001;29;20832;-84
2022/01/25 12:50:59;;;;;;;0.50;0.50;;;5.60;99.90;;;;;;4898881;29;20451;-84
2022/01/25 12:53:27;;;;;;;0.53;0.50;;;5.60;99.90;;;;;;4899124;29;20565;-84
2022/01/25 12:55:58;;;;;;;2.10;0.47;;;5.50;99.90;;;;;;4898809;29;20473;-84
2022/01/25 12:58:27;;;;;;;0.30;0.30;;;5.40;99.90;;;;;;4898747;29;20448;-84
2022/01/25 13:00:56;;;;;;;0.60;0.30;;;5.30;99.90;;;;;;4898968;29;20429;-84
2022/01/25 13:03:28;;;;;;;0.30;0.20;;;5.30;99.90;;;;;;4898734;29;20468;-84
2022/01/25 13:05:57;;;;;;;0.47;0.47;;;5.30;99.90;;;;;;4898617;29;20465;-84
2022/01/25 13:08:27;;;;;;;0.50;0.50;;;5.30;99.90;;;;;;4898530;29;20494;-84
2022/01/25 13:11:16;;;;;;;0.40;0.40;;;5.40;99.90;;;;;;4898330;29;20452;-84
2022/01/25 13:13:58;;;;;;;0.30;0.30;;;5.40;99.90;;;;;;4898238;29;20473;-84
2022/01/25 13:16:44;;;;;;;0.33;0.33;;;5.40;99.90;;;;;;4898535;29;20487;-84
2022/01/25 13:19:12;;;;;;;0.47;0.40;;;5.40;99.90;;;;;;4898523;29;20452;-84
2022/01/25 13:21:41;;;;;;;0.37;0.37;;;5.40;99.90;;;;;;4898305;29;20836;-84
2022/01/25 13:24:10;;;;;;;1.43;1.33;;;5.40;99.90;;;;;;4898311;29;20461;-84
2022/01/25 13:26:50;;;;;;;0.40;0.40;;;5.40;99.90;;;;;;4897996;29;20468;-84
2022/01/25 13:32:13;;;;;;;0.60;0.60;;;5.30;99.90;;;;;;4897986;29;20421;-84
2022/01/25 13:34:40;;;;;;;0.60;0.60;;;5.40;99.90;;;;;;4897948;29;20481;-84
2022/01/25 13:37:06;;;;;;;1.40;0.60;;;5.60;99.90;;;;;;4897977;29;20496;-84
2022/01/25 13:39:35;;;;;;;0.60;0.60;;;5.70;99.90;;;;;;4898231;29;20429;-83
2022/01/25 13:42:08;;;;;;;0.40;0.40;;;5.60;99.90;;;;;;4897878;29;20467;-84
2022/01/25 13:47:19;;;;;;;0.83;0.83;;;5.60;99.90;;;;;;4898780;29;20462;-81
2022/01/25 13:49:47;;;;;;;0.30;0.30;;;5.60;99.90;;;;;;4898444;29;20452;-81
2022/01/25 13:52:14;;;;;;;0.80;0.80;;;5.60;99.90;;;;;;4898163;29;20458;-81
2022/01/25 13:54:40;;;;;;;0.40;0.40;;;5.50;99.90;;;;;;4898247;29;20488;-81
2022/01/25 13:57:12;;;;;;;4.93;1.10;;;5.50;99.90;;;;;;4898305;29;20457;-81
2022/01/25 13:59:40;;;;;;;0.60;0.60;;;5.50;99.90;;;;;;4898024;29;20978;-81
2022/01/25 14:02:07;;;;;;;1.70;0.50;;;5.40;99.90;;;;;;4898036;29;20469;-81
2022/01/25 14:04:38;;;;;;;1.90;1.90;;;5.40;99.90;;;;;;4897609;29;20464;-81
2022/01/25 14:07:04;;;;;;;0.40;0.40;;;5.30;99.90;;;;;;4897795;29;20828;-81
2022/01/25 14:09:38;;;;;;;0.70;0.70;;;5.20;99.90;;;;;;4897778;29;20441;-81
2022/01/25 14:23:24;;;;;;;2.93;0.70;;;5.20;99.90;;;;;;4898241;29;20891;-81
2022/01/25 14:25:58;;;;;;;0.50;0.50;;;5.10;99.90;;;;;;4897886;29;20906;-81
2022/01/25 14:28:25;;;;;;;1.90;1.30;;;5.10;99.90;;;;;;4897522;29;20451;-81
2022/01/25 14:30:55;;;;;;;0.60;0.50;;;5.10;99.90;;;;;;4897759;29;20461;-81
2022/01/25 14:33:24;;;;;;;0.97;0.40;;;5.20;99.90;;;;;;4897515;29;21031;-81